createdAt,value
2019-02-17T00:00:34.332Z,101096.00
2019-02-17T00:03:07.206Z,101093.00
2019-02-17T00:05:41.145Z,101095.00
2019-02-17T00:08:14.032Z,101102.00
2019-02-17T00:10:46.890Z,101091.00
2019-02-17T00:13:19.760Z,101095.00
2019-02-17T00:15:52.529Z,101096.00
2019-02-17T00:18:25.369Z,101093.00
2019-02-17T00:20:58.216Z,101099.00
2019-02-17T00:23:31.055Z,101096.00
2019-02-17T00:26:03.892Z,101104.00
2019-02-17T00:28:36.765Z,101096.00
2019-02-17T00:31:09.608Z,101095.00
2019-02-17T00:33:42.445Z,101087.00
2019-02-17T00:36:15.275Z,101090.00
2019-02-17T00:38:48.103Z,101102.00
2019-02-17T00:41:22.108Z,101100.00
2019-02-17T00:43:54.920Z,101089.00
2019-02-17T00:46:29.048Z,101090.00
2019-02-17T00:49:01.894Z,101101.00
2019-02-17T00:51:35.747Z,101100.00
2019-02-17T00:54:08.548Z,101093.00
2019-02-17T00:56:41.421Z,101083.00
2019-02-17T00:59:14.250Z,101081.00
2019-02-17T01:01:48.066Z,101085.00
2019-02-17T01:04:20.885Z,101089.00
2019-02-17T01:06:53.720Z,101088.00
2019-02-17T01:09:26.541Z,101076.00
2019-02-17T01:11:59.340Z,101093.00
2019-02-17T01:14:32.192Z,101082.00
2019-02-17T01:17:05.005Z,101086.00
2019-02-17T01:19:37.867Z,101090.00
2019-02-17T01:22:10.799Z,101082.00
2019-02-17T01:24:43.738Z,101083.00
2019-02-17T01:27:16.565Z,101080.00
2019-02-17T01:29:49.395Z,101082.00
2019-02-17T01:32:22.303Z,101086.00
2019-02-17T01:34:55.884Z,101086.00
2019-02-17T01:37:28.961Z,101075.00
2019-02-17T01:40:01.772Z,101088.00
2019-02-17T01:42:34.585Z,101081.00
2019-02-17T01:45:07.706Z,101076.00
2019-02-17T01:47:40.529Z,101081.00
2019-02-17T01:50:13.396Z,101073.00
2019-02-17T01:52:46.208Z,101081.00
2019-02-17T01:55:19.055Z,101070.00
2019-02-17T01:57:52.845Z,101076.00
2019-02-17T02:00:25.670Z,101072.00
2019-02-17T02:02:58.479Z,101081.00
2019-02-17T02:05:31.331Z,101063.00
2019-02-17T02:08:04.271Z,101059.00
2019-02-17T02:10:37.197Z,101061.00
2019-02-17T02:13:10.018Z,101055.00
2019-02-17T02:15:42.858Z,101063.00
2019-02-17T02:18:15.711Z,101060.00
2019-02-17T02:20:48.614Z,101057.00
2019-02-17T02:23:21.487Z,101054.00
2019-02-17T02:25:54.293Z,101064.00
2019-02-17T02:28:27.152Z,101056.00
2019-02-17T02:30:59.970Z,101049.00
2019-02-17T02:33:32.779Z,101059.00
2019-02-17T02:36:05.627Z,101064.00
2019-02-17T02:38:38.402Z,101060.00
2019-02-17T02:41:11.228Z,101048.00
2019-02-17T02:43:44.106Z,101052.00
2019-02-17T02:46:16.998Z,101057.00
2019-02-17T02:48:49.816Z,101048.00
2019-02-17T02:51:22.688Z,101052.00
2019-02-17T02:53:55.439Z,101056.00
2019-02-17T02:56:28.282Z,101047.00
2019-02-17T02:59:01.093Z,101050.00
2019-02-17T03:01:33.911Z,101045.00
2019-02-17T03:04:06.719Z,101040.00
2019-02-17T03:07:04.779Z,101049.00
2019-02-17T03:09:37.629Z,101043.00
2019-02-17T03:12:10.551Z,101045.00
2019-02-17T03:14:43.404Z,101049.00
2019-02-17T03:17:16.224Z,101056.00
2019-02-17T03:19:49.061Z,101053.00
2019-02-17T03:22:21.881Z,101040.00
2019-02-17T03:24:54.738Z,101041.00
2019-02-17T03:27:27.524Z,101051.00
2019-02-17T03:30:04.842Z,101044.00
2019-02-17T03:32:35.152Z,101041.00
2019-02-17T03:35:08.079Z,101053.00
2019-02-17T03:37:40.870Z,101054.00
2019-02-17T03:40:13.723Z,101051.00
2019-02-17T03:42:46.528Z,101047.00
2019-02-17T03:45:19.399Z,101052.00
2019-02-17T03:47:52.414Z,101047.00
2019-02-17T03:50:25.254Z,101056.00
2019-02-17T03:52:58.102Z,101047.00
2019-02-17T03:55:30.919Z,101049.00
2019-02-17T03:58:03.710Z,101053.00
2019-02-17T04:00:36.554Z,101048.00
2019-02-17T04:03:09.388Z,101043.00
2019-02-17T04:05:42.186Z,101046.00
2019-02-17T04:08:15.021Z,101051.00
2019-02-17T04:10:47.856Z,101056.00
2019-02-17T04:13:20.676Z,101051.00
2019-02-17T04:15:53.464Z,101049.00
2019-02-17T04:18:26.275Z,101054.00
2019-02-17T04:20:59.115Z,101046.00
2019-02-17T04:23:32.040Z,101042.00
2019-02-17T04:26:04.945Z,101047.00
2019-02-17T04:28:37.746Z,101040.00
2019-02-17T04:31:10.571Z,101039.00
2019-02-17T04:33:43.429Z,101034.00
2019-02-17T04:36:16.222Z,101039.00
2019-02-17T04:38:49.133Z,101043.00
2019-02-17T04:41:21.972Z,101032.00
2019-02-17T04:43:54.798Z,101037.00
2019-02-17T04:46:27.598Z,101035.00
2019-02-17T04:49:00.442Z,101037.00
2019-02-17T04:51:33.254Z,101027.00
2019-02-17T04:54:06.083Z,101038.00
2019-02-17T04:56:38.892Z,101039.00
2019-02-17T04:59:11.712Z,101042.00
2019-02-17T05:01:44.508Z,101041.00
2019-02-17T05:04:17.324Z,101036.00
2019-02-17T05:06:50.290Z,101035.00
2019-02-17T05:09:23.112Z,101033.00
2019-02-17T05:11:55.913Z,101034.00
2019-02-17T05:14:28.761Z,101032.00
2019-02-17T05:17:01.577Z,101035.00
2019-02-17T05:19:34.390Z,101031.00
2019-02-17T05:22:07.206Z,101030.00
2019-02-17T05:24:40.054Z,101026.00
2019-02-17T05:27:12.839Z,101032.00
2019-02-17T05:29:45.665Z,101019.00
2019-02-17T05:32:18.470Z,101029.00
2019-02-17T05:34:51.316Z,101019.00
2019-02-17T05:37:24.120Z,101016.00
2019-02-17T05:39:56.960Z,101031.00
2019-02-17T05:42:29.752Z,101031.00
2019-02-17T05:45:03.102Z,101033.00
2019-02-17T05:47:35.931Z,101023.00
2019-02-17T05:50:09.806Z,101026.00
2019-02-17T05:52:42.599Z,101033.00
2019-02-17T05:55:15.434Z,101031.00
2019-02-17T05:57:48.244Z,101026.00
2019-02-17T06:00:25.277Z,101034.00
2019-02-17T06:02:58.072Z,101032.00
2019-02-17T06:05:33.562Z,101034.00
2019-02-17T06:08:06.372Z,101027.00
2019-02-17T06:10:39.169Z,101033.00
2019-02-17T06:13:11.950Z,101034.00
2019-02-17T06:15:44.778Z,101032.00
2019-02-17T06:18:17.588Z,101036.00
2019-02-17T06:20:50.401Z,101035.00
2019-02-17T06:23:23.432Z,101034.00
2019-02-17T06:25:56.270Z,101040.00
2019-02-17T06:28:29.244Z,101038.00
2019-02-17T06:31:02.130Z,101043.00
2019-02-17T06:33:34.925Z,101041.00
2019-02-17T06:36:07.760Z,101048.00
2019-02-17T06:38:40.572Z,101048.00
2019-02-17T06:41:13.376Z,101050.00
2019-02-17T06:43:46.205Z,101042.00
2019-02-17T06:46:23.314Z,101038.00
2019-02-17T06:48:56.095Z,101044.00
2019-02-17T06:51:28.929Z,101049.00
2019-02-17T06:54:01.718Z,101048.00
2019-02-17T06:56:41.775Z,101054.00
2019-02-17T06:59:14.581Z,101050.00
2019-02-17T07:01:47.402Z,101054.00
2019-02-17T07:04:25.710Z,101048.00
2019-02-17T07:07:01.807Z,101047.00
2019-02-17T07:09:35.624Z,101050.00
2019-02-17T07:12:08.555Z,101049.00
2019-02-17T07:14:41.345Z,101049.00
2019-02-17T07:17:14.175Z,101060.00
2019-02-17T07:19:46.978Z,101061.00
2019-02-17T07:22:19.916Z,101062.00
2019-02-17T07:24:52.716Z,101056.00
2019-02-17T07:27:25.585Z,101064.00
2019-02-17T07:29:58.393Z,101069.00
2019-02-17T07:32:31.251Z,101070.00
2019-02-17T07:35:06.373Z,101072.00
2019-02-17T07:37:39.237Z,101068.00
2019-02-17T07:40:12.068Z,101071.00
2019-02-17T07:42:44.902Z,101070.00
2019-02-17T07:45:17.721Z,101079.00
2019-02-17T07:47:50.588Z,101063.00
2019-02-17T07:50:23.398Z,101069.00
2019-02-17T07:52:56.239Z,101071.00
2019-02-17T07:55:29.058Z,101075.00
2019-02-17T07:58:01.895Z,101069.00
2019-02-17T08:00:34.771Z,101077.00
2019-02-17T08:03:07.585Z,101074.00
2019-02-17T08:05:40.467Z,101069.00
2019-02-17T08:08:13.286Z,101074.00
2019-02-17T08:10:46.168Z,101086.00
2019-02-17T08:13:19.003Z,101071.00
2019-02-17T08:15:51.848Z,101076.00
2019-02-17T08:18:24.724Z,101076.00
2019-02-17T08:20:57.586Z,101075.00
2019-02-17T08:23:30.485Z,101088.00
2019-02-17T08:26:03.332Z,101074.00
2019-02-17T08:28:39.159Z,101081.00
2019-02-17T08:31:12.019Z,101086.00
2019-02-17T08:33:44.848Z,101091.00
2019-02-17T08:36:17.725Z,101081.00
2019-02-17T08:38:50.527Z,101089.00
2019-02-17T08:41:23.439Z,101092.00
2019-02-17T08:43:56.241Z,101083.00
2019-02-17T08:46:29.202Z,101089.00
2019-02-17T08:49:02.051Z,101085.00
2019-02-17T08:51:34.924Z,101087.00
2019-02-17T08:54:07.925Z,101075.00
2019-02-17T08:56:40.777Z,101086.00
2019-02-17T08:59:13.674Z,101084.00
2019-02-17T09:01:46.881Z,101088.00
2019-02-17T09:04:19.649Z,101084.00
2019-02-17T09:06:52.547Z,101085.00
2019-02-17T09:09:25.516Z,101090.00
2019-02-17T09:11:58.376Z,101076.00
2019-02-17T09:14:31.184Z,101078.00
2019-02-17T09:17:05.161Z,101080.00
2019-02-17T09:19:38.001Z,101084.00
2019-02-17T09:22:10.864Z,101083.00
2019-02-17T09:24:43.715Z,101076.00
2019-02-17T09:27:16.601Z,101069.00
2019-02-17T09:29:49.553Z,101075.00
2019-02-17T09:32:22.399Z,101073.00
2019-02-17T09:34:55.321Z,101069.00
2019-02-17T09:37:28.348Z,101073.00
2019-02-17T09:40:01.178Z,101064.00
2019-02-17T09:42:34.074Z,101062.00
2019-02-17T09:45:09.120Z,101074.00
2019-02-17T09:47:41.886Z,101062.00
2019-02-17T09:50:14.619Z,101065.00
2019-02-17T09:52:47.426Z,101067.00
2019-02-17T09:55:20.188Z,101066.00
2019-02-17T09:57:52.949Z,101068.00
2019-02-17T10:00:25.776Z,101068.00
2019-02-17T10:02:58.516Z,101073.00
2019-02-17T10:05:31.290Z,101069.00
2019-02-17T10:08:04.038Z,101073.00
2019-02-17T10:10:36.821Z,101073.00
2019-02-17T10:13:09.672Z,101064.00
2019-02-17T10:15:42.452Z,101074.00
2019-02-17T10:18:15.315Z,101072.00
2019-02-17T10:20:48.054Z,101068.00
2019-02-17T10:23:20.865Z,101077.00
2019-02-17T10:25:53.630Z,101071.00
2019-02-17T10:28:26.398Z,101061.00
2019-02-17T10:30:59.138Z,101068.00
2019-02-17T10:33:32.934Z,101069.00
2019-02-17T10:36:05.672Z,101060.00
2019-02-17T10:38:38.439Z,101060.00
2019-02-17T10:41:11.184Z,101061.00
2019-02-17T10:43:43.843Z,101057.00
2019-02-17T10:46:16.593Z,101056.00
2019-02-17T10:48:49.367Z,101050.00
2019-02-17T10:51:22.090Z,101057.00
2019-02-17T10:53:54.852Z,101053.00
2019-02-17T10:56:27.590Z,101055.00
2019-02-17T10:59:00.337Z,101050.00
2019-02-17T11:01:33.055Z,101054.00
2019-02-17T11:04:08.758Z,101050.00
2019-02-17T11:06:41.476Z,101038.00
2019-02-17T11:09:20.493Z,101031.00
2019-02-17T11:11:53.230Z,101032.00
2019-02-17T11:14:25.992Z,101033.00
2019-02-17T11:16:58.717Z,101030.00
2019-02-17T11:19:31.472Z,101022.00
2019-02-17T11:22:04.555Z,101025.00
2019-02-17T11:24:37.333Z,101028.00
2019-02-17T11:27:10.095Z,101023.00
2019-02-17T11:29:42.853Z,101023.00
2019-02-17T11:32:15.580Z,101017.00
2019-02-17T11:34:48.365Z,101009.00
2019-02-17T11:37:21.161Z,101017.00
2019-02-17T11:39:53.965Z,101017.00
2019-02-17T11:42:26.687Z,101020.00
2019-02-17T11:44:59.450Z,101011.00
2019-02-17T11:47:32.167Z,101004.00
2019-02-17T11:50:05.283Z,101000.00
2019-02-17T11:52:38.038Z,100995.00
2019-02-17T11:55:12.508Z,100992.00
2019-02-17T11:57:45.245Z,100988.00
2019-02-17T12:00:19.097Z,100984.00
2019-02-17T12:02:51.848Z,100981.00
2019-02-17T12:05:24.645Z,100976.00
2019-02-17T12:07:57.504Z,100971.00
2019-02-17T12:10:30.358Z,100974.00
2019-02-17T12:13:03.235Z,100978.00
2019-02-17T12:15:36.193Z,100967.00
2019-02-17T12:18:09.041Z,100972.00
2019-02-17T12:21:07.436Z,100976.00
2019-02-17T12:23:43.666Z,100962.00
2019-02-17T12:26:36.161Z,100965.00
2019-02-17T12:29:31.424Z,100960.00
2019-02-17T12:32:04.452Z,100957.00
2019-02-17T12:34:37.457Z,100955.00
2019-02-17T12:37:10.291Z,100947.00
2019-02-17T12:39:43.407Z,100944.00
2019-02-17T12:42:16.391Z,100943.00
2019-02-17T12:44:49.293Z,100937.00
2019-02-17T12:47:22.130Z,100940.00
2019-02-17T12:49:55.063Z,100942.00
2019-02-17T12:52:28.070Z,100940.00
2019-02-17T12:55:01.042Z,100933.00
2019-02-17T12:57:33.933Z,100923.00
2019-02-17T13:00:11.540Z,100918.00
2019-02-17T13:02:44.396Z,100923.00
2019-02-17T13:05:17.299Z,100918.00
2019-02-17T13:07:50.522Z,100924.00
2019-02-17T13:10:23.403Z,100915.00
2019-02-17T13:12:56.273Z,100923.00
2019-02-17T13:15:30.249Z,100918.00
2019-02-17T13:18:03.259Z,100922.00
2019-02-17T13:20:36.159Z,100914.00
2019-02-17T13:23:09.118Z,100916.00
2019-02-17T13:25:41.983Z,100913.00
2019-02-17T13:28:14.836Z,100909.00
2019-02-17T13:30:47.796Z,100907.00
2019-02-17T13:33:20.681Z,100905.00
2019-02-17T13:35:53.557Z,100900.00
2019-02-17T13:38:26.448Z,100901.00
2019-02-17T13:40:59.431Z,100887.00
2019-02-17T13:43:32.299Z,100884.00
2019-02-17T13:46:05.245Z,100882.00
2019-02-17T13:48:38.109Z,100882.00
2019-02-17T13:51:11.258Z,100874.00
2019-02-17T13:53:44.127Z,100877.00
2019-02-17T13:56:17.034Z,100869.00
2019-02-17T13:58:49.897Z,100878.00
2019-02-17T14:01:22.773Z,100878.00
2019-02-17T14:03:55.608Z,100873.00
2019-02-17T14:06:28.490Z,100872.00
2019-02-17T14:09:01.345Z,100868.00
2019-02-17T14:11:35.419Z,100883.00
2019-02-17T14:14:08.227Z,100864.00
2019-02-17T14:16:41.142Z,100867.00
2019-02-17T14:19:14.007Z,100862.00
2019-02-17T14:21:47.023Z,100856.00
2019-02-17T14:24:19.973Z,100849.00
2019-02-17T14:26:52.861Z,100854.00
2019-02-17T14:29:25.767Z,100850.00
2019-02-17T14:31:58.756Z,100845.00
2019-02-17T14:34:31.619Z,100847.00
2019-02-17T14:37:04.483Z,100850.00
2019-02-17T14:39:37.464Z,100845.00
2019-02-17T14:42:10.357Z,100832.00
2019-02-17T14:44:43.257Z,100839.00
2019-02-17T14:47:16.128Z,100833.00
2019-02-17T14:49:49.115Z,100829.00
2019-02-17T14:52:22.067Z,100826.00
2019-02-17T14:54:55.058Z,100827.00
2019-02-17T14:57:28.995Z,100825.00
2019-02-17T15:00:02.031Z,100821.00
2019-02-17T15:02:35.986Z,100825.00
2019-02-17T15:05:08.885Z,100824.00
2019-02-17T15:07:41.814Z,100819.00
2019-02-17T15:10:14.631Z,100820.00
2019-02-17T15:12:47.580Z,100819.00
2019-02-17T15:15:20.396Z,100816.00
2019-02-17T15:17:53.298Z,100812.00
2019-02-17T15:20:26.189Z,100797.00
2019-02-17T15:22:59.210Z,100801.00
2019-02-17T15:25:32.083Z,100786.00
2019-02-17T15:28:05.002Z,100788.00
2019-02-17T15:30:37.977Z,100787.00
2019-02-17T15:33:10.927Z,100785.00
2019-02-17T15:35:43.737Z,100789.00
2019-02-17T15:38:16.620Z,100786.00
2019-02-17T15:40:49.520Z,100773.00
2019-02-17T15:43:22.430Z,100769.00
2019-02-17T15:45:55.253Z,100767.00
2019-02-17T15:48:28.127Z,100769.00
2019-02-17T15:51:06.401Z,100766.00
2019-02-17T15:53:36.113Z,100758.00
2019-02-17T15:56:08.987Z,100766.00
2019-02-17T15:58:42.057Z,100756.00
2019-02-17T16:01:15.029Z,100756.00
2019-02-17T16:03:48.072Z,100747.00
2019-02-17T16:06:21.041Z,100740.00
2019-02-17T16:08:53.939Z,100729.00
2019-02-17T16:11:26.863Z,100730.00
2019-02-17T16:13:59.727Z,100735.00
2019-02-17T16:16:32.671Z,100726.00
2019-02-17T16:19:05.667Z,100733.00
2019-02-17T16:21:38.589Z,100728.00
2019-02-17T16:24:11.487Z,100722.00
2019-02-17T16:26:44.436Z,100723.00
2019-02-17T16:29:17.281Z,100731.00
2019-02-17T16:31:50.311Z,100729.00
2019-02-17T16:34:23.174Z,100717.00
2019-02-17T16:36:56.051Z,100720.00
2019-02-17T16:39:28.944Z,100720.00
2019-02-17T16:42:01.987Z,100716.00
2019-02-17T16:44:34.899Z,100710.00
2019-02-17T16:47:07.805Z,100715.00
2019-02-17T16:49:40.668Z,100718.00
2019-02-17T16:52:13.599Z,100712.00
2019-02-17T16:54:46.505Z,100715.00
2019-02-17T16:57:19.444Z,100710.00
2019-02-17T16:59:52.533Z,100708.00
2019-02-17T17:02:25.475Z,100715.00
2019-02-17T17:05:05.135Z,100721.00
2019-02-17T17:07:38.248Z,100719.00
2019-02-17T17:10:11.402Z,100726.00
2019-02-17T17:12:44.354Z,100735.00
2019-02-17T17:15:17.556Z,100730.00
2019-02-17T17:17:50.570Z,100731.00
2019-02-17T17:20:23.656Z,100731.00
2019-02-17T17:22:56.800Z,100725.00
2019-02-17T17:25:29.699Z,100732.00
2019-02-17T17:28:02.699Z,100719.00
2019-02-17T17:30:35.720Z,100721.00
2019-02-17T17:33:08.588Z,100716.00
2019-02-17T17:35:41.478Z,100716.00
2019-02-17T17:38:14.352Z,100716.00
2019-02-17T17:40:47.340Z,100710.00
2019-02-17T17:43:20.305Z,100717.00
2019-02-17T17:45:53.160Z,100727.00
2019-02-17T17:48:26.074Z,100722.00
2019-02-17T17:50:59.107Z,100711.00
2019-02-17T17:53:32.029Z,100713.00
2019-02-17T17:56:04.968Z,100713.00
2019-02-17T17:58:37.841Z,100716.00
2019-02-17T18:01:10.746Z,100711.00
2019-02-17T18:03:43.688Z,100707.00
2019-02-17T18:06:16.592Z,100704.00
2019-02-17T18:08:49.485Z,100712.00
2019-02-17T18:11:22.367Z,100719.00
2019-02-17T18:13:55.279Z,100716.00
2019-02-17T18:16:28.238Z,100717.00
2019-02-17T18:19:01.104Z,100722.00
2019-02-17T18:21:34.032Z,100722.00
2019-02-17T18:24:06.904Z,100732.00
2019-02-17T18:26:40.962Z,100732.00
2019-02-17T18:29:14.230Z,100719.00
2019-02-17T18:31:47.087Z,100730.00
2019-02-17T18:34:21.124Z,100730.00
2019-02-17T18:36:53.959Z,100731.00
2019-02-17T18:39:26.877Z,100736.00
2019-02-17T18:41:59.897Z,100731.00
2019-02-17T18:44:32.799Z,100736.00
2019-02-17T18:47:05.640Z,100725.00
2019-02-17T18:49:38.526Z,100736.00
2019-02-17T18:52:11.383Z,100721.00
2019-02-17T18:54:44.466Z,100723.00
2019-02-17T18:57:17.353Z,100731.00
2019-02-17T18:59:50.512Z,100721.00
2019-02-17T19:02:23.419Z,100731.00
2019-02-17T19:04:56.339Z,100726.00
2019-02-17T19:07:30.385Z,100736.00
2019-02-17T19:10:05.078Z,100735.00
2019-02-17T19:12:38.069Z,100734.00
2019-02-17T19:15:12.118Z,100729.00
2019-02-17T19:17:44.986Z,100731.00
2019-02-17T19:20:18.888Z,100725.00
2019-02-17T19:22:51.856Z,100724.00
2019-02-17T19:25:24.971Z,100719.00
2019-02-17T19:27:58.038Z,100719.00
2019-02-17T19:30:30.944Z,100722.00
2019-02-17T19:33:03.944Z,100724.00
2019-02-17T19:35:42.114Z,100734.00
2019-02-17T19:38:11.808Z,100726.00
2019-02-17T19:40:45.557Z,100728.00
2019-02-17T19:43:18.633Z,100721.00
2019-02-17T19:45:51.578Z,100735.00
2019-02-17T19:48:24.515Z,100731.00
2019-02-17T19:50:57.441Z,100732.00
2019-02-17T19:53:30.363Z,100733.00
2019-02-17T19:56:03.242Z,100727.00
2019-02-17T19:58:36.254Z,100732.00
2019-02-17T20:01:09.226Z,100742.00
2019-02-17T20:04:01.737Z,100731.00
2019-02-17T20:06:34.813Z,100724.00
2019-02-17T20:09:16.039Z,100731.00
2019-02-17T20:11:49.039Z,100729.00
2019-02-17T20:14:22.070Z,100726.00
2019-02-17T20:16:55.053Z,100731.00
2019-02-17T20:19:28.072Z,100735.00
2019-02-17T20:22:01.029Z,100728.00
2019-02-17T20:24:33.930Z,100733.00
2019-02-17T20:27:06.989Z,100735.00
2019-02-17T20:29:40.066Z,100732.00
2019-02-17T20:32:12.946Z,100739.00
2019-02-17T20:34:45.901Z,100731.00
2019-02-17T20:37:18.796Z,100740.00
2019-02-17T20:39:51.744Z,100744.00
2019-02-17T20:42:24.621Z,100740.00
2019-02-17T20:44:57.612Z,100747.00
2019-02-17T20:47:30.687Z,100731.00
2019-02-17T20:50:05.191Z,100740.00
2019-02-17T20:52:38.075Z,100736.00
2019-02-17T20:55:11.263Z,100742.00
2019-02-17T20:57:44.126Z,100729.00
2019-02-17T21:00:17.426Z,100733.00
2019-02-17T21:02:50.406Z,100737.00
2019-02-17T21:05:23.413Z,100732.00
2019-02-17T21:07:56.307Z,100726.00
2019-02-17T21:10:29.264Z,100734.00
2019-02-17T21:13:02.153Z,100727.00
2019-02-17T21:15:35.023Z,100727.00
2019-02-17T21:18:07.899Z,100730.00
2019-02-17T21:20:40.916Z,100725.00
2019-02-17T21:23:13.760Z,100731.00
2019-02-17T21:25:46.688Z,100725.00
2019-02-17T21:28:19.543Z,100724.00
2019-02-17T21:30:52.450Z,100728.00
2019-02-17T21:33:25.307Z,100722.00
2019-02-17T21:35:58.195Z,100721.00
2019-02-17T21:38:31.075Z,100720.00
2019-02-17T21:41:09.405Z,100725.00
2019-02-17T21:43:38.727Z,100717.00
2019-02-17T21:46:11.590Z,100717.00
2019-02-17T21:48:44.454Z,100714.00
2019-02-17T21:51:18.476Z,100713.00
2019-02-17T21:53:51.336Z,100712.00
2019-02-17T21:56:24.252Z,100720.00
2019-02-17T21:58:57.146Z,100707.00
2019-02-17T22:01:30.067Z,100711.00
2019-02-17T22:04:02.938Z,100713.00
2019-02-17T22:06:35.828Z,100714.00
2019-02-17T22:09:08.832Z,100711.00
2019-02-17T22:11:41.695Z,100712.00
2019-02-17T22:14:14.539Z,100704.00
2019-02-17T22:16:47.451Z,100708.00
2019-02-17T22:19:20.300Z,100709.00
2019-02-17T22:21:53.140Z,100706.00
2019-02-17T22:24:25.957Z,100706.00
2019-02-17T22:26:58.800Z,100698.00
2019-02-17T22:29:31.634Z,100707.00
2019-02-17T22:32:05.426Z,100699.00
2019-02-17T22:34:38.281Z,100699.00
2019-02-17T22:37:11.111Z,100696.00
2019-02-17T22:39:43.925Z,100690.00
2019-02-17T22:42:16.802Z,100700.00
2019-02-17T22:44:49.699Z,100700.00
2019-02-17T22:47:22.553Z,100698.00
2019-02-17T22:49:55.409Z,100690.00
2019-02-17T22:52:28.378Z,100695.00
2019-02-17T22:55:01.361Z,100699.00
2019-02-17T22:57:34.209Z,100697.00
2019-02-17T23:00:24.036Z,100710.00
2019-02-17T23:02:58.768Z,100700.00
2019-02-17T23:05:31.863Z,100700.00
2019-02-17T23:08:04.707Z,100696.00
2019-02-17T23:10:37.577Z,100702.00
2019-02-17T23:15:35.836Z,100695.00
2019-02-17T23:18:09.704Z,100700.00
2019-02-17T23:20:42.495Z,100700.00
2019-02-17T23:23:16.804Z,100706.00
2019-02-17T23:25:49.633Z,100698.00
2019-02-17T23:28:22.569Z,100705.00
2019-02-17T23:30:55.788Z,100700.00
2019-02-17T23:33:28.644Z,100704.00
2019-02-17T23:36:01.488Z,100698.00
2019-02-17T23:38:34.339Z,100703.00
2019-02-17T23:41:07.192Z,100698.00
2019-02-17T23:43:40.026Z,100702.00
2019-02-17T23:46:12.825Z,100705.00
2019-02-17T23:48:45.673Z,100706.00
2019-02-17T23:51:18.551Z,100714.00
2019-02-17T23:53:51.375Z,100707.00
2019-02-17T23:56:24.302Z,100718.00
2019-02-17T23:58:57.114Z,100722.00
